Time;durP1;ratioP1;P1;durP2;ratioP2;P2;SDS_P1;SDS_P2;PMS_P1;PMS_P2;Temp;Humidity;BMP_temperature;BMP_pressure;BME280_temperature;BME280_humidity;BME280_pressure;Samples;Min_cycle;Max_cycle;Signal;HPM_P1;HPM_P2
2023/12/04 00:01:14;;;;;;;6.97;5.47;;;;;;;1.03;55.83;95383.09;5008619;28;20357;-72
2023/12/04 00:03:40;;;;;;;6.73;5.47;;;;;;;0.75;55.98;95368.25;5005537;28;20287;-72
2023/12/04 00:06:05;;;;;;;6.47;5.80;;;;;;;0.82;56.70;95377.34;5001608;28;20317;-72
2023/12/04 00:08:32;;;;;;;6.33;5.70;;;;;;;0.65;56.27;95382.63;4999307;28;20208;-72
2023/12/04 00:10:58;;;;;;;6.37;5.53;;;;;;;0.75;55.65;95383.78;5006032;28;20197;-73
2023/12/04 00:13:24;;;;;;;6.17;5.57;;;;;;;0.78;55.04;95372.44;5002427;28;20223;-72
2023/12/04 00:15:49;;;;;;;6.57;5.80;;;;;;;1.03;54.29;95379.69;5000956;28;20220;-72
2023/12/04 00:18:15;;;;;;;7.03;6.33;;;;;;;0.87;54.72;95390.88;5005426;28;20226;-73
2023/12/04 00:20:40;;;;;;;6.53;5.93;;;;;;;0.82;54.89;95395.47;5005021;28;20243;-73
2023/12/04 00:23:06;;;;;;;6.00;5.40;;;;;;;0.99;54.45;95396.28;5001739;28;20319;-73
2023/12/04 00:25:31;;;;;;;6.63;5.90;;;;;;;1.04;54.01;95400.31;5002309;28;20302;-71
2023/12/04 00:27:56;;;;;;;6.37;5.60;;;;;;;0.81;54.27;95400.75;5002908;28;20219;-70
2023/12/04 00:30:22;;;;;;;6.20;5.60;;;;;;;0.69;53.60;95414.34;5003550;28;20294;-70
2023/12/04 00:32:47;;;;;;;6.80;6.10;;;;;;;0.57;54.16;95410.66;5003444;28;20291;-72
2023/12/04 00:35:13;;;;;;;6.83;5.80;;;;;;;0.73;54.04;95402.91;5007278;28;20578;-74
2023/12/04 00:37:39;;;;;;;5.60;5.03;;;;;;;0.83;53.34;95411.84;5005614;28;20229;-74
2023/12/04 00:40:06;;;;;;;6.27;5.47;;;;;;;1.03;52.36;95418.53;5008484;28;20247;-74
2023/12/04 00:42:31;;;;;;;6.27;5.27;;;;;;;1.03;52.72;95421.13;5006351;28;20294;-74
2023/12/04 00:44:57;;;;;;;6.90;5.70;;;;;;;0.85;53.55;95418.59;5008402;28;20283;-73
2023/12/04 00:47:22;;;;;;;6.43;5.80;;;;;;;1.00;53.31;95429.06;5002535;28;20198;-74
2023/12/04 00:49:48;;;;;;;6.73;5.90;;;;;;;1.05;53.03;95425.28;5005999;28;20191;-74
2023/12/04 00:52:13;;;;;;;7.50;6.23;;;;;;;0.91;52.73;95430.41;5001566;28;20227;-73
2023/12/04 00:54:40;;;;;;;5.93;5.33;;;;;;;0.93;53.02;95430.28;4994820;28;20234;-74
2023/12/04 00:57:06;;;;;;;8.03;5.60;;;;;;;0.72;53.20;95432.28;5007366;28;20218;-74
2023/12/04 00:59:31;;;;;;;6.07;5.47;;;;;;;0.85;52.53;95436.72;5001648;28;20218;-74
2023/12/04 01:01:57;;;;;;;7.20;6.20;;;;;;;0.53;53.17;95429.84;5010559;28;20179;-74
2023/12/04 01:04:22;;;;;;;7.23;6.20;;;;;;;0.62;52.91;95442.31;5004801;28;20346;-74
2023/12/04 01:06:47;;;;;;;6.40;5.70;;;;;;;0.49;53.51;95438.69;5006547;28;20250;-74
2023/12/04 01:09:13;;;;;;;7.77;6.60;;;;;;;0.40;54.18;95437.41;5004248;28;20310;-74
2023/12/04 01:11:38;;;;;;;6.80;6.10;;;;;;;0.41;53.91;95439.09;5000413;28;20324;-74
2023/12/04 01:14:04;;;;;;;5.87;5.27;;;;;;;-0.04;54.02;95458.63;5000503;28;20219;-73
2023/12/04 01:16:29;;;;;;;6.83;6.10;;;;;;;0.20;53.71;95444.44;5010948;28;20226;-73
2023/12/04 01:18:55;;;;;;;6.93;5.73;;;;;;;0.35;53.28;95429.91;5005426;28;20233;-73
2023/12/04 01:21:20;;;;;;;6.70;6.00;;;;;;;0.40;53.29;95442.56;5003323;28;20219;-73
2023/12/04 01:23:46;;;;;;;6.57;5.93;;;;;;;0.62;53.08;95452.66;5005054;28;20279;-73
2023/12/04 01:26:11;;;;;;;6.80;6.10;;;;;;;0.51;53.05;95440.28;4999182;28;20201;-73
2023/12/04 01:28:37;;;;;;;6.07;5.47;;;;;;;0.57;52.91;95436.53;5002533;28;20222;-73
2023/12/04 01:31:03;;;;;;;6.57;5.80;;;;;;;0.69;52.67;95445.38;5010241;28;20249;-74
2023/12/04 01:33:30;;;;;;;6.90;5.83;;;;;;;0.60;52.39;95446.72;5011741;28;20229;-73
2023/12/04 01:35:55;;;;;;;6.77;6.07;;;;;;;0.69;52.55;95435.88;5007236;28;20234;-74
2023/12/04 01:38:21;;;;;;;6.90;6.23;;;;;;;0.46;52.90;95446.63;5010222;28;20222;-72
2023/12/04 01:40:46;;;;;;;6.30;5.70;;;;;;;0.46;52.67;95446.63;5008881;28;20202;-74
2023/12/04 01:43:12;;;;;;;6.90;6.20;;;;;;;0.44;53.60;95446.69;5011460;28;20227;-74
2023/12/04 01:45:37;;;;;;;6.70;6.03;;;;;;;0.55;53.30;95443.53;5013350;28;20238;-73
2023/12/04 01:48:04;;;;;;;7.47;6.40;;;;;;;0.77;52.85;95446.66;5011107;28;20258;-74
2023/12/04 01:50:29;;;;;;;7.20;6.33;;;;;;;0.55;53.46;95444.38;4995378;28;20201;-73
2023/12/04 01:52:55;;;;;;;7.57;6.47;;;;;;;0.51;53.76;95452.38;5012531;28;20179;-74
2023/12/04 01:55:21;;;;;;;6.83;6.13;;;;;;;0.48;53.62;95453.34;5010980;28;20218;-74
2023/12/04 01:57:47;;;;;;;7.17;6.27;;;;;;;0.36;53.90;95448.84;4985411;28;20211;-73
2023/12/04 02:00:14;;;;;;;6.07;5.47;;;;;;;0.41;53.32;95446.84;5005278;28;20226;-74
2023/12/04 02:02:42;;;;;;;9.53;6.50;;;;;;;0.34;53.86;95454.06;5006410;28;20253;-73
2023/12/04 02:05:08;;;;;;;7.07;6.07;;;;;;;0.47;53.35;95449.09;5009536;28;20278;-72
2023/12/04 02:07:36;;;;;;;7.60;6.80;;;;;;;0.44;53.39;95455.28;5005628;28;20250;-72
2023/12/04 02:10:02;;;;;;;8.23;6.30;;;;;;;0.63;53.35;95454.31;5011378;28;20249;-73
2023/12/04 02:12:28;;;;;;;7.30;6.20;;;;;;;0.41;53.49;95452.84;5008105;28;20246;-73
2023/12/04 02:14:53;;;;;;;6.80;6.10;;;;;;;0.44;53.85;95454.44;5008666;28;20246;-73
2023/12/04 02:17:20;;;;;;;7.70;6.43;;;;;;;0.22;54.52;95472.84;5014233;28;20191;-73
2023/12/04 02:19:46;;;;;;;6.63;5.90;;;;;;;0.47;54.36;95471.56;5010763;28;20242;-73
2023/12/04 02:22:11;;;;;;;7.00;6.30;;;;;;;0.42;54.46;95479.56;5012154;28;20238;-73
2023/12/04 02:24:37;;;;;;;8.33;6.93;;;;;;;0.42;54.35;95484.72;5006929;28;20226;-73
2023/12/04 02:27:25;;;;;;;7.67;6.87;;;;;;;0.29;54.70;95481.94;5004554;28;20210;-73
2023/12/04 02:29:59;;;;;;;7.03;6.20;;;;;;;0.27;54.83;95485.50;5006169;28;20215;-73
2023/12/04 02:32:28;;;;;;;7.30;6.60;;;;;;;0.24;54.42;95491.66;5010302;28;20211;-73
2023/12/04 02:34:54;;;;;;;6.90;6.20;;;;;;;-0.04;54.84;95484.47;5011894;28;20189;-73
2023/12/04 02:37:22;;;;;;;8.30;6.47;;;;;;;0.25;54.61;95489.94;5007065;28;20219;-74
2023/12/04 02:39:49;;;;;;;6.73;6.03;;;;;;;0.25;54.44;95500.28;5006769;28;20223;-75
2023/12/04 02:42:16;;;;;;;7.83;5.30;;;;;;;0.35;53.58;95489.41;5009574;28;20219;-74
2023/12/04 02:44:42;;;;;;;6.47;5.77;;;;;;;0.54;53.13;95488.44;5012376;28;20225;-74
2023/12/04 02:47:08;;;;;;;6.40;5.70;;;;;;;0.42;53.12;95505.44;5005477;28;20297;-74
2023/12/04 02:49:33;;;;;;;6.00;5.40;;;;;;;0.02;52.77;95497.09;5003910;28;20227;-75
2023/12/04 02:51:59;;;;;;;6.30;5.20;;;;;;;-0.12;53.59;95508.13;5005833;28;20226;-74
2023/12/04 02:54:24;;;;;;;6.03;5.43;;;;;;;-0.13;53.41;95496.13;5010750;28;20226;-74
2023/12/04 02:56:50;;;;;;;7.43;6.60;;;;;;;-0.04;53.62;95508.56;5002852;28;20223;-74
2023/12/04 02:59:15;;;;;;;6.60;5.97;;;;;;;-0.39;54.39;95504.28;5005026;28;20210;-74
2023/12/04 03:01:41;;;;;;;7.00;6.03;;;;;;;-0.42;54.87;95497.53;5005445;28;20294;-74
2023/12/04 03:04:06;;;;;;;6.43;5.67;;;;;;;-0.42;54.53;95486.34;5006411;28;20310;-73
2023/12/04 03:06:32;;;;;;;7.13;5.73;;;;;;;-0.66;54.82;95494.34;5011643;28;20226;-74
2023/12/04 03:08:59;;;;;;;6.77;6.10;;;;;;;-0.63;55.15;95503.72;5006028;28;20235;-74
2023/12/04 03:11:25;;;;;;;7.23;6.27;;;;;;;-0.47;54.59;95484.81;5010768;28;20180;-73
2023/12/04 03:13:50;;;;;;;6.80;6.17;;;;;;;-0.36;54.31;95502.38;5001509;28;20229;-74
2023/12/04 03:16:17;;;;;;;6.90;6.20;;;;;;;-0.27;54.45;95503.69;5009193;28;20301;-74
2023/12/04 03:18:43;;;;;;;7.53;6.60;;;;;;;-0.45;54.89;95501.09;5005220;28;20219;-73
2023/12/04 03:21:08;;;;;;;7.20;6.43;;;;;;;-0.27;54.53;95496.78;5004270;28;20219;-73
2023/12/04 03:23:34;;;;;;;7.07;6.37;;;;;;;-0.40;54.50;95515.53;4999171;28;20188;-72
2023/12/04 03:25:59;;;;;;;6.40;5.73;;;;;;;-0.30;54.59;95498.66;5006625;28;20190;-73
2023/12/04 03:28:24;;;;;;;6.97;6.23;;;;;;;-0.25;54.46;95505.28;5006496;28;20259;-73
2023/12/04 03:30:50;;;;;;;6.93;5.87;;;;;;;-0.31;54.64;95509.94;5007452;28;20249;-73
2023/12/04 03:33:15;;;;;;;7.00;6.30;;;;;;;-0.26;54.60;95513.97;5003777;28;20214;-73
2023/12/04 03:35:41;;;;;;;7.30;6.47;;;;;;;-0.13;53.55;95503.88;5011311;28;20226;-74
2023/12/04 03:38:06;;;;;;;7.03;5.73;;;;;;;-0.20;53.52;95507.66;4988915;28;20198;-74
2023/12/04 03:40:32;;;;;;;6.73;6.03;;;;;;;-0.21;53.57;95511.16;5003423;28;20293;-75
2023/12/04 03:42:57;;;;;;;6.37;5.77;;;;;;;-0.58;54.10;95523.25;5006352;28;20299;-74
2023/12/04 03:45:22;;;;;;;7.37;6.00;;;;;;;-0.56;54.70;95523.16;5007873;28;20239;-74
2023/12/04 03:47:48;;;;;;;7.27;6.50;;;;;;;-0.38;54.45;95532.63;5008151;28;20216;-75
2023/12/04 03:50:13;;;;;;;5.50;5.00;;;;;;;-0.29;53.66;95527.03;5001911;28;20194;-74
2023/12/04 03:52:39;;;;;;;6.33;5.73;;;;;;;-0.54;54.47;95518.75;5004347;28;20220;-75
2023/12/04 03:55:05;;;;;;;7.03;6.33;;;;;;;-0.45;54.84;95523.50;4999549;28;20211;-74
2023/12/04 03:57:30;;;;;;;6.53;5.90;;;;;;;-0.42;54.51;95520.78;5004414;28;20219;-74
2023/12/04 03:59:56;;;;;;;6.87;6.17;;;;;;;-0.60;54.83;95512.13;5002285;28;20234;-74
2023/12/04 04:02:22;;;;;;;7.43;6.73;;;;;;;-0.58;54.82;95523.25;4999787;28;20215;-73
2023/12/04 04:04:47;;;;;;;6.87;6.17;;;;;;;-0.65;54.75;95524.44;5002821;28;20199;-73
2023/12/04 04:07:16;;;;;;;6.60;5.90;;;;;;;-0.71;54.93;95525.56;5001322;28;20307;-74
2023/12/04 04:09:41;;;;;;;6.83;6.00;;;;;;;-0.84;55.41;95528.78;5002389;28;20302;-74
2023/12/04 04:12:06;;;;;;;6.23;5.63;;;;;;;-0.78;55.28;95524.16;5005607;28;20306;-74
2023/12/04 04:14:32;;;;;;;7.47;6.67;;;;;;;-0.92;55.57;95518.81;5005265;28;20254;-74
2023/12/04 04:16:57;;;;;;;7.10;6.40;;;;;;;-0.78;55.20;95524.16;5004916;28;20217;-74
2023/12/04 04:19:23;;;;;;;7.50;6.30;;;;;;;-0.73;54.77;95522.19;5009235;28;20230;-74
2023/12/04 04:21:48;;;;;;;6.83;5.70;;;;;;;-0.92;55.01;95535.13;5010941;28;20246;-74
2023/12/04 04:24:13;;;;;;;8.63;6.50;;;;;;;-0.98;55.53;95543.16;5009193;28;20306;-74
2023/12/04 04:26:39;;;;;;;7.50;6.60;;;;;;;-0.79;54.77;95529.41;5000558;28;20226;-74
2023/12/04 04:29:04;;;;;;;8.53;6.77;;;;;;;-0.79;54.45;95537.16;5005468;28;20179;-74
2023/12/04 04:31:30;;;;;;;6.33;5.73;;;;;;;-1.01;55.29;95545.03;5008532;28;20231;-75
2023/12/04 04:33:55;;;;;;;7.80;6.00;;;;;;;-1.18;56.00;95533.69;5005914;28;20297;-74
2023/12/04 04:36:21;;;;;;;8.10;6.70;;;;;;;-0.91;55.40;95546.28;5001648;28;20231;-73
2023/12/04 04:38:46;;;;;;;6.37;5.77;;;;;;;-0.75;54.49;95541.25;5009091;28;20233;-73
2023/12/04 04:41:15;;;;;;;7.17;6.40;;;;;;;-0.60;54.08;95545.72;5005150;28;20276;-74
2023/12/04 04:43:41;;;;;;;6.07;5.47;;;;;;;-0.78;54.13;95551.72;5003027;28;20238;-75
2023/12/04 04:46:07;;;;;;;6.60;5.90;;;;;;;-0.72;54.50;95559.22;5003472;28;20238;-75
2023/12/04 04:48:32;;;;;;;6.70;6.00;;;;;;;-0.62;54.53;95555.28;5004733;28;20223;-73
2023/12/04 04:50:58;;;;;;;6.67;6.07;;;;;;;-0.75;54.53;95552.44;5004792;28;20215;-73
2023/12/04 04:53:23;;;;;;;7.57;6.47;;;;;;;-0.64;53.96;95557.13;5009920;28;20202;-73
2023/12/04 04:55:48;;;;;;;7.80;6.60;;;;;;;-0.77;53.92;95562.00;5008995;28;20186;-76
2023/12/04 04:58:14;;;;;;;6.53;5.83;;;;;;;-0.71;53.83;95563.47;5008137;28;20231;-74
2023/12/04 05:00:39;;;;;;;6.27;5.60;;;;;;;-0.58;53.52;95566.31;5001737;28;20238;-75
2023/12/04 05:03:05;;;;;;;6.77;5.73;;;;;;;-0.38;52.30;95565.38;5006990;28;20238;-74
2023/12/04 05:05:30;;;;;;;6.23;5.63;;;;;;;-0.42;52.45;95566.44;5008068;28;20217;-76
2023/12/04 05:07:56;;;;;;;6.43;5.83;;;;;;;-0.49;52.21;95569.28;5002250;28;20191;-75
2023/12/04 05:10:21;;;;;;;6.57;5.80;;;;;;;-0.33;52.21;95564.25;5000583;28;20219;-76
2023/12/04 05:12:46;;;;;;;6.90;5.80;;;;;;;-0.58;52.33;95569.75;5008052;28;20242;-77
2023/12/04 05:15:12;;;;;;;6.73;5.90;;;;;;;-0.50;52.26;95564.22;5006332;28;20233;-76
2023/12/04 05:17:37;;;;;;;5.80;5.20;;;;;;;-0.49;51.86;95574.47;5007877;28;20274;-77
2023/12/04 05:20:03;;;;;;;6.63;5.63;;;;;;;-0.52;52.70;95578.94;5004752;28;20218;-76
2023/12/04 05:22:28;;;;;;;7.20;6.03;;;;;;;-0.47;52.36;95580.41;5008324;28;20225;-76
2023/12/04 05:24:54;;;;;;;7.60;6.03;;;;;;;-0.34;52.18;95580.69;5002867;28;20284;-76
2023/12/04 05:27:19;;;;;;;7.03;6.33;;;;;;;-0.50;52.41;95590.06;5000043;28;20233;-76
2023/12/04 05:29:45;;;;;;;6.83;6.13;;;;;;;-0.45;52.26;95590.69;5007495;28;20272;-76
2023/12/04 05:32:10;;;;;;;7.13;6.40;;;;;;;-0.38;52.34;95583.47;5003336;28;20183;-76
2023/12/04 05:34:35;;;;;;;9.10;6.00;;;;;;;-0.59;53.13;95587.88;5005830;28;20234;-75
2023/12/04 05:37:01;;;;;;;7.07;6.00;;;;;;;-0.52;53.12;95592.69;5022550;28;20297;-76
2023/12/04 05:39:26;;;;;;;6.77;6.07;;;;;;;-0.58;52.73;95587.81;5010319;28;20227;-75
2023/12/04 05:41:52;;;;;;;6.63;6.03;;;;;;;-0.68;53.15;95591.72;5009883;28;20218;-75
2023/12/04 05:44:17;;;;;;;8.87;6.83;;;;;;;-0.62;53.10;95588.84;5006845;28;20221;-76
2023/12/04 05:46:42;;;;;;;7.47;6.67;;;;;;;-0.84;53.51;95593.31;4999005;28;20236;-76
2023/12/04 05:49:08;;;;;;;7.73;6.67;;;;;;;-1.01;54.09;95594.91;5000471;28;20215;-76
2023/12/04 05:51:33;;;;;;;7.80;6.53;;;;;;;-0.96;54.14;95587.81;5003868;28;20231;-76
2023/12/04 05:53:59;;;;;;;8.10;7.27;;;;;;;-0.99;54.52;95590.53;5004170;28;20230;-76
2023/12/04 05:56:24;;;;;;;7.83;7.03;;;;;;;-0.97;54.85;95580.94;4999535;28;20184;-77
2023/12/04 05:58:49;;;;;;;12.93;7.40;;;;;;;-1.00;54.79;95599.16;4999801;28;20195;-75
2023/12/04 06:01:15;;;;;;;7.67;6.80;;;;;;;-0.91;54.62;95598.78;5007983;28;20214;-77
2023/12/04 06:03:40;;;;;;;7.60;6.80;;;;;;;-0.84;54.47;95601.06;5001111;28;20255;-75
2023/12/04 06:06:06;;;;;;;8.27;7.27;;;;;;;-0.80;54.32;95600.00;5005146;28;20227;-76
2023/12/04 06:08:32;;;;;;;7.97;6.93;;;;;;;-0.91;54.74;95609.09;5005851;28;20652;-75
2023/12/04 06:10:57;;;;;;;8.57;7.50;;;;;;;-0.87;54.67;95601.22;4983828;28;20200;-78
2023/12/04 06:13:23;;;;;;;8.67;7.30;;;;;;;-0.90;55.11;95609.94;5007445;28;20219;-78
2023/12/04 06:15:49;;;;;;;7.47;6.67;;;;;;;-1.03;55.01;95595.88;5007424;28;20237;-77
2023/12/04 06:18:14;;;;;;;7.53;6.83;;;;;;;-0.97;55.13;95603.34;5004297;28;20240;-78
2023/12/04 06:20:40;;;;;;;8.70;7.80;;;;;;;-1.04;54.91;95602.81;5008610;28;20302;-73
2023/12/04 06:23:06;;;;;;;9.50;7.30;;;;;;;-1.11;55.41;95607.38;5002709;28;20210;-73
2023/12/04 06:25:32;;;;;;;9.23;7.53;;;;;;;-0.93;55.25;95610.91;4994985;28;20231;-73
2023/12/04 06:27:57;;;;;;;8.63;7.23;;;;;;;-0.95;55.11;95599.81;5005767;28;20255;-72
2023/12/04 06:30:23;;;;;;;8.63;7.57;;;;;;;-0.56;54.62;95613.56;5009133;28;20310;-77
2023/12/04 06:32:49;;;;;;;7.83;7.03;;;;;;;-0.61;54.07;95607.78;5006363;28;20226;-78
2023/12/04 06:35:15;;;;;;;8.00;7.00;;;;;;;-0.70;54.76;95602.09;5011361;28;20261;-78
2023/12/04 06:37:41;;;;;;;9.40;7.90;;;;;;;-0.55;54.15;95604.94;5007852;28;20234;-78
2023/12/04 06:40:11;;;;;;;10.77;7.67;;;;;;;-0.56;54.43;95619.59;5009454;28;20235;-76
2023/12/04 06:42:37;;;;;;;8.33;7.37;;;;;;;-0.67;54.38;95616.63;5005701;28;20226;-77
2023/12/04 06:45:06;;;;;;;10.47;7.97;;;;;;;-0.52;54.18;95641.78;4990990;28;20238;-80
2023/12/04 06:47:34;;;;;;;9.33;7.30;;;;;;;-0.62;53.79;95619.84;5013023;28;20191;-81
2023/12/04 06:49:59;;;;;;;9.30;7.47;;;;;;;-0.51;54.07;95633.13;5010607;28;20210;-84
2023/12/04 06:52:25;;;;;;;8.77;7.63;;;;;;;-0.58;54.29;95625.72;5001460;28;20281;-76
2023/12/04 06:54:51;;;;;;;9.10;7.73;;;;;;;-0.51;54.28;95634.84;5005492;28;20248;-76
2023/12/04 06:57:16;;;;;;;9.40;7.77;;;;;;;-0.28;54.11;95644.16;5011021;28;20248;-74
2023/12/04 06:59:42;;;;;;;9.87;7.77;;;;;;;-0.36;54.31;95646.25;5006716;28;20235;-75
2023/12/04 07:02:08;;;;;;;10.93;8.00;;;;;;;-0.56;54.33;95639.38;5000891;28;20194;-71
2023/12/04 07:04:33;;;;;;;9.13;7.30;;;;;;;-0.47;54.33;95649.31;5001856;28;20214;-71
2023/12/04 07:07:04;;;;;;;9.17;7.73;;;;;;;-0.44;54.40;95649.19;5001179;28;20219;-69
2023/12/04 07:09:31;;;;;;;8.73;7.67;;;;;;;-0.07;53.66;95655.25;4999935;28;20226;-71
2023/12/04 07:11:56;;;;;;;8.67;7.60;;;;;;;-0.11;53.07;95659.69;4999169;28;20232;-71
2023/12/04 07:14:22;;;;;;;8.87;7.70;;;;;;;-0.08;52.84;95654.41;5003997;28;20190;-72
2023/12/04 07:16:47;;;;;;;8.60;7.70;;;;;;;-0.21;53.48;95661.06;5009730;28;20187;-72
2023/12/04 07:19:14;;;;;;;9.30;7.73;;;;;;;-0.33;54.07;95654.69;5008190;28;20240;-71
2023/12/04 07:21:40;;;;;;;9.33;7.93;;;;;;;-0.27;53.89;95649.25;5005724;28;20261;-80
2023/12/04 07:24:06;;;;;;;8.53;7.60;;;;;;;-0.40;54.37;95648.16;5009709;28;20274;-75
2023/12/04 07:26:35;;;;;;;10.00;7.23;;;;;;;-0.33;53.47;95656.44;5004552;28;20208;-75
2023/12/04 07:29:01;;;;;;;8.73;7.73;;;;;;;-0.34;53.69;95659.94;5012198;28;20184;-78
2023/12/04 07:31:27;;;;;;;10.00;7.30;;;;;;;-0.29;53.49;95670.91;5013745;28;20237;-77
2023/12/04 07:33:55;;;;;;;7.70;6.80;;;;;;;-0.55;54.23;95665.16;5006782;28;20219;-76
2023/12/04 07:36:22;;;;;;;8.13;6.83;;;;;;;-0.71;54.39;95667.59;5009652;28;20310;-74
2023/12/04 07:38:49;;;;;;;7.63;6.80;;;;;;;-0.67;54.43;95658.81;5008942;28;20219;-74
2023/12/04 07:41:15;;;;;;;9.90;7.20;;;;;;;-0.47;53.69;95660.50;5004403;28;20183;-70
2023/12/04 07:43:40;;;;;;;8.97;7.37;;;;;;;-0.54;53.68;95674.59;5005234;28;20206;-72
2023/12/04 07:46:06;;;;;;;7.70;6.90;;;;;;;-0.55;53.31;95662.59;5001037;28;20243;-72
2023/12/04 07:48:31;;;;;;;7.37;6.60;;;;;;;-0.60;52.88;95674.88;5001314;28;20222;-69
2023/12/04 07:50:57;;;;;;;7.90;6.63;;;;;;;-0.75;52.99;95666.06;5002159;28;20270;-70
2023/12/04 07:53:22;;;;;;;6.60;6.00;;;;;;;-0.63;52.72;95669.00;5003345;28;20186;-71
2023/12/04 07:55:50;;;;;;;8.87;6.73;;;;;;;-0.38;52.66;95668.72;5008091;28;20184;-70
2023/12/04 07:58:19;;;;;;;10.27;6.93;;;;;;;-0.35;52.03;95666.00;5003100;28;20223;-79
2023/12/04 08:00:45;;;;;;;7.20;5.70;;;;;;;-0.13;51.65;95671.88;5007906;28;20223;-80
2023/12/04 08:03:10;;;;;;;8.33;6.50;;;;;;;-0.28;51.37;95672.59;5005570;28;20257;-81
2023/12/04 08:05:38;;;;;;;7.97;6.80;;;;;;;-0.22;51.73;95685.22;5005758;28;20187;-83
2023/12/04 08:08:04;;;;;;;9.13;6.20;;;;;;;-0.15;51.80;95680.63;5006106;28;20196;-79
2023/12/04 08:10:29;;;;;;;8.77;6.33;;;;;;;-0.28;51.59;95685.50;5008583;28;20261;-84
2023/12/04 08:12:55;;;;;;;7.40;5.50;;;;;;;-0.25;51.83;95685.34;5002708;28;20218;-80
2023/12/04 08:15:20;;;;;;;6.57;5.73;;;;;;;-0.10;51.43;95682.06;5009903;28;20223;-79
2023/12/04 08:17:46;;;;;;;6.17;5.47;;;;;;;-0.10;50.70;95681.25;5006627;28;20223;-81
2023/12/04 08:20:13;;;;;;;7.20;5.47;;;;;;;0.01;50.92;95683.34;5008277;28;20214;-75
2023/12/04 08:22:44;;;;;;;5.53;4.90;;;;;;;0.23;50.21;95684.00;5000401;28;20318;-75
2023/12/04 08:25:09;;;;;;;5.30;4.60;;;;;;;-0.09;49.30;95681.16;5007309;28;20217;-75
2023/12/04 08:27:35;;;;;;;4.73;4.20;;;;;;;0.04;49.39;95672.84;5003653;28;20303;-78
2023/12/04 08:30:00;;;;;;;5.90;4.50;;;;;;;0.17;48.58;95672.19;5004124;28;20226;-74
2023/12/04 08:32:29;;;;;;;6.83;4.40;;;;;;;0.08;48.64;95687.28;5009689;28;20208;-74
2023/12/04 08:34:55;;;;;;;4.90;4.27;;;;;;;0.13;48.29;95674.97;5004826;28;20227;-77
2023/12/04 08:37:21;;;;;;;5.77;4.37;;;;;;;0.18;47.71;95688.53;5008080;28;20246;-79
2023/12/04 08:39:46;;;;;;;4.70;4.20;;;;;;;0.22;47.32;95677.16;5008834;28;20254;-81
2023/12/04 08:42:12;;;;;;;4.80;3.80;;;;;;;0.04;47.03;95684.00;5009658;28;20226;-79
2023/12/04 08:44:38;;;;;;;3.87;3.37;;;;;;;0.27;47.16;95688.13;5007495;28;20187;-75
2023/12/04 08:47:03;;;;;;;4.87;4.10;;;;;;;0.53;46.95;95675.66;5009056;28;20234;-78
2023/12/04 08:49:29;;;;;;;5.40;4.23;;;;;;;0.44;47.57;95672.59;5010824;28;20218;-79
2023/12/04 08:51:54;;;;;;;4.67;4.17;;;;;;;0.80;47.13;95678.63;5005015;28;20276;-78
2023/12/04 08:54:20;;;;;;;4.67;4.13;;;;;;;0.86;45.93;95668.81;5003507;28;20224;-76
2023/12/04 08:56:45;;;;;;;6.37;4.80;;;;;;;0.91;45.59;95668.59;5004672;28;20222;-69
2023/12/04 08:59:12;;;;;;;6.83;4.90;;;;;;;0.83;45.72;95676.75;5001727;28;20207;-69
2023/12/04 09:01:38;;;;;;;5.30;4.47;;;;;;;0.94;45.51;95667.59;4999368;28;20309;-74
2023/12/04 09:04:04;;;;;;;4.80;3.80;;;;;;;1.00;44.94;95670.72;5000555;28;20311;-75
2023/12/04 09:06:29;;;;;;;5.97;4.10;;;;;;;0.87;45.50;95664.47;5008256;28;20268;-73
2023/12/04 09:08:55;;;;;;;5.80;4.47;;;;;;;0.97;45.37;95663.09;4999053;28;20223;-70
2023/12/04 09:11:20;;;;;;;7.27;5.13;;;;;;;1.18;45.47;95649.97;5003665;28;20195;-75
2023/12/04 09:13:48;;;;;;;7.33;6.00;;;;;;;1.33;45.50;95654.34;5000960;28;20219;-71
2023/12/04 09:16:14;;;;;;;7.50;5.90;;;;;;;1.53;45.31;95653.31;5002559;28;20241;-71
2023/12/04 09:18:39;;;;;;;6.20;5.60;;;;;;;1.70;45.55;95653.22;5006132;28;20231;-70
2023/12/04 09:21:05;;;;;;;7.47;5.30;;;;;;;1.83;44.82;95657.78;5005061;28;20218;-71
2023/12/04 09:23:31;;;;;;;6.00;4.60;;;;;;;1.95;44.33;95649.31;5001937;28;20264;-76
2023/12/04 09:25:56;;;;;;;5.73;4.60;;;;;;;1.99;44.09;95643.03;5000032;28;20249;-71
2023/12/04 09:28:22;;;;;;;6.37;5.10;;;;;;;2.12;44.14;95631.06;5002311;28;20282;-67
2023/12/04 09:30:47;;;;;;;4.70;4.30;;;;;;;2.01;43.58;95636.03;5007754;28;20214;-69
2023/12/04 09:33:13;;;;;;;4.87;3.90;;;;;;;2.05;43.53;95636.69;5000346;28;20227;-69
2023/12/04 09:35:38;;;;;;;5.27;4.50;;;;;;;2.35;42.81;95634.13;5004936;28;20349;-71
2023/12/04 09:38:04;;;;;;;4.80;4.30;;;;;;;2.07;43.80;95640.03;5000682;28;20187;-71
2023/12/04 09:40:29;;;;;;;5.77;5.27;;;;;;;2.10;44.26;95639.84;5001018;28;20251;-75
2023/12/04 09:42:55;;;;;;;4.60;4.20;;;;;;;2.56;43.77;95638.09;5002074;28;20254;-72
2023/12/04 09:45:23;;;;;;;5.97;5.17;;;;;;;2.82;42.62;95627.97;5002761;28;20239;-78
2023/12/04 09:47:49;;;;;;;5.43;4.70;;;;;;;2.97;42.85;95642.66;5001375;28;20273;-77
2023/12/04 09:50:17;;;;;;;5.60;4.83;;;;;;;2.80;42.35;95635.00;5004221;28;20182;-78
2023/12/04 09:52:42;;;;;;;5.00;4.47;;;;;;;2.89;42.19;95634.47;5004868;28;20257;-76
2023/12/04 09:55:08;;;;;;;7.53;4.90;;;;;;;2.99;42.28;95627.78;5006922;28;20238;-75
2023/12/04 09:57:34;;;;;;;5.73;4.10;;;;;;;2.93;41.29;95624.75;5007419;28;20219;-74
2023/12/04 10:00:02;;;;;;;5.73;5.10;;;;;;;2.94;41.23;95621.19;5005644;28;20226;-75
2023/12/04 10:02:28;;;;;;;5.73;4.93;;;;;;;2.98;41.12;95622.72;5009983;28;20199;-72
2023/12/04 10:04:54;;;;;;;5.30;4.40;;;;;;;3.23;41.18;95622.06;5010878;28;20183;-71
2023/12/04 10:07:19;;;;;;;5.90;4.30;;;;;;;3.50;40.68;95616.94;5006113;28;20225;-72
2023/12/04 10:09:45;;;;;;;6.03;4.70;;;;;;;3.52;40.27;95613.34;5005599;28;20215;-71
2023/12/04 10:12:10;;;;;;;4.83;4.33;;;;;;;3.83;40.06;95611.44;4994177;28;20234;-73
2023/12/04 10:14:42;;;;;;;5.60;4.23;;;;;;;4.05;39.26;95610.91;5007127;28;20187;-78
2023/12/04 10:17:17;;;;;;;8.40;6.83;;;;;;;3.96;39.09;95611.50;5011063;28;20186;-78
2023/12/04 10:19:43;;;;;;;4.87;4.37;;;;;;;4.08;38.51;95609.88;5004674;28;20307;-76
2023/12/04 10:22:11;;;;;;;5.53;4.87;;;;;;;4.00;39.13;95620.78;5006003;28;20298;-80
2023/12/04 10:24:39;;;;;;;5.20;4.70;;;;;;;3.65;39.93;95618.63;5007068;28;20246;-78
2023/12/04 10:27:08;;;;;;;6.03;4.87;;;;;;;3.55;40.13;95607.09;5005084;28;20216;-77
2023/12/04 10:29:47;;;;;;;8.77;5.23;;;;;;;3.96;39.57;95599.34;5003649;28;20183;-76
2023/12/04 10:32:13;;;;;;;6.27;4.60;;;;;;;3.80;39.48;95609.03;5005659;28;20209;-75
2023/12/04 10:34:42;;;;;;;6.60;4.87;;;;;;;4.12;38.76;95594.00;5011283;28;20231;-70
2023/12/04 10:37:09;;;;;;;5.67;5.03;;;;;;;4.43;38.23;95585.00;5004968;28;20309;-77
2023/12/04 10:39:50;;;;;;;6.07;4.57;;;;;;;4.57;37.51;95583.25;5005629;28;20250;-75
2023/12/04 10:42:32;;;;;;;4.97;4.20;;;;;;;4.64;37.74;95581.94;5009009;28;20333;-76
2023/12/04 10:44:59;;;;;;;4.53;4.13;;;;;;;4.67;37.41;95584.34;5007114;28;20222;-71
2023/12/04 10:47:25;;;;;;;4.33;3.37;;;;;;;4.26;36.99;95592.25;5004205;28;20203;-74
2023/12/04 10:49:52;;;;;;;4.13;3.73;;;;;;;4.26;36.85;95587.88;5003614;28;20203;-77
2023/12/04 10:52:24;;;;;;;4.03;3.63;;;;;;;4.09;37.74;95593.34;5009328;28;20226;-75
2023/12/04 10:54:50;;;;;;;4.40;3.80;;;;;;;4.27;37.43;95586.94;5012078;28;20302;-69
2023/12/04 10:57:28;;;;;;;5.03;4.50;;;;;;;4.00;37.43;95581.75;5010438;28;20306;-73
2023/12/04 11:00:01;;;;;;;5.10;4.60;;;;;;;4.19;38.81;95591.81;5011164;28;20227;-73
2023/12/04 11:02:30;;;;;;;5.97;4.80;;;;;;;4.37;39.31;95585.41;5012553;28;20190;-72
2023/12/04 11:05:14;;;;;;;6.63;4.27;;;;;;;4.67;38.62;95578.28;5005049;28;20176;-71
2023/12/04 11:07:47;;;;;;;5.27;4.57;;;;;;;4.75;37.16;95579.44;5001996;28;20222;-75
2023/12/04 11:10:13;;;;;;;5.37;4.87;;;;;;;4.51;37.98;95570.66;5008750;28;20222;-76
2023/12/04 11:12:48;;;;;;;5.10;4.20;;;;;;;4.61;37.52;95563.91;5004744;28;20223;-71
2023/12/04 11:15:17;;;;;;;5.63;4.40;;;;;;;4.50;37.87;95563.78;5003887;28;20229;-75
2023/12/04 11:17:49;;;;;;;4.77;4.27;;;;;;;4.61;38.41;95569.94;5014436;28;20218;-72
2023/12/04 11:20:18;;;;;;;7.77;4.97;;;;;;;4.68;38.10;95561.72;5004875;28;20203;-72
2023/12/04 11:22:45;;;;;;;5.60;4.50;;;;;;;4.79;37.89;95559.25;5026427;28;20223;-73
2023/12/04 11:25:14;;;;;;;6.00;4.87;;;;;;;4.93;38.30;95553.94;5002347;28;20223;-68
2023/12/04 11:27:40;;;;;;;5.90;5.30;;;;;;;5.07;37.51;95547.78;5003921;28;20219;-74
2023/12/04 11:30:07;;;;;;;6.83;5.77;;;;;;;5.07;37.33;95542.56;5008363;28;20350;-71
2023/12/04 11:32:44;;;;;;;6.10;5.50;;;;;;;5.23;37.76;95537.94;5003789;28;20192;-68